Portada
METAR-TAF:

METAR-TAF

Aeroports :

El Borma, Tunísia

latitud: 31-41N, longitud: 009-10E, altitud: 258 m

Observació

L'informe es va fer fa 10 hores i 38 minuts, a les 16:00 UTC
Vent 8 kt del Nord-Oest, variant entre Oest i Nord
Temperatura 39°C
Humitat 14%
Pressió 1012 hPa
Visibilitat 10 km o més
Núvols disperses a una alçada de 2600 ft

METAR: DTTR 151600Z 32008KT 270V360 9999 SCT026 39/07 Q1012 SIROCCO

Hora: 03:38 (02:38 UTC)


TAF: manca

Observacions i pronòstics meteorològics de més de 4000 aeroports (METAR i TAF).

Les estacions disponibles són els punts grocs i vermells al mapa.

Posi el ratolí al punt desitjat per veure el nom de l'estació.

Feu clic per veure les observacions i els pronòstics meteorològics.

Per canviar el mapa: feu clic els botons verds amb una creu de color negre per apropar; al botó verd amb un guió per allunyar la imatge; o en les fletxes verdes per a mapes adjacents.


METAR-TAF: